sensor_id;sensor_type;location;lat;lon;timestamp;pressure;altitude;pressure_sealevel;temperature;humidity
58967;BME280;44744;51.894;5.080;2023-02-19T00:00:29;101898.49;;;9.08;92.98
58967;BME280;44744;51.894;5.080;2023-02-19T00:02:09;101898.88;;;9.08;92.91
58967;BME280;44744;51.894;5.080;2023-02-19T00:03:19;101900.48;;;9.07;93.04
58967;BME280;44744;51.894;5.080;2023-02-19T00:04:30;101903.00;;;9.06;93.12
58967;BME280;44744;51.894;5.080;2023-02-19T00:06:50;101907.94;;;9.06;93.13
58967;BME280;44744;51.894;5.080;2023-02-19T00:17:37;101913.55;;;9.01;93.23
58967;BME280;44744;51.894;5.080;2023-02-19T00:21:21;101912.35;;;8.99;93.23
58967;BME280;44744;51.894;5.080;2023-02-19T00:23:53;101914.48;;;9.00;93.23
58967;BME280;44744;51.894;5.080;2023-02-19T00:25:01;101917.11;;;9.00;93.18
58967;BME280;44744;51.894;5.080;2023-02-19T00:26:11;101919.60;;;8.99;93.14
58967;BME280;44744;51.894;5.080;2023-02-19T00:27:17;101918.19;;;8.99;93.25
58967;BME280;44744;51.894;5.080;2023-02-19T00:28:18;101919.91;;;9.00;93.18
58967;BME280;44744;51.894;5.080;2023-02-19T00:29:27;101921.66;;;9.01;93.08
58967;BME280;44744;51.894;5.080;2023-02-19T00:30:30;101919.02;;;9.01;93.00
58967;BME280;44744;51.894;5.080;2023-02-19T00:31:35;101921.45;;;9.02;93.11
58967;BME280;44744;51.894;5.080;2023-02-19T00:32:49;101923.91;;;9.02;93.07
58967;BME280;44744;51.894;5.080;2023-02-19T00:36:26;101923.55;;;9.03;92.95
58967;BME280;44744;51.894;5.080;2023-02-19T00:40:06;101922.66;;;9.03;92.81
58967;BME280;44744;51.894;5.080;2023-02-19T00:41:11;101920.34;;;9.04;92.83
58967;BME280;44744;51.894;5.080;2023-02-19T00:44:43;101917.75;;;9.02;92.61
58967;BME280;44744;51.894;5.080;2023-02-19T00:46:53;101922.19;;;9.01;92.50
58967;BME280;44744;51.894;5.080;2023-02-19T00:47:56;101921.69;;;9.00;92.53
58967;BME280;44744;51.894;5.080;2023-02-19T00:51:32;101923.02;;;8.98;92.36
58967;BME280;44744;51.894;5.080;2023-02-19T00:52:35;101919.84;;;8.97;92.42
58967;BME280;44744;51.894;5.080;2023-02-19T00:53:36;101922.66;;;8.98;92.40
58967;BME280;44744;51.894;5.080;2023-02-19T00:54:37;101921.40;;;8.98;92.32
58967;BME280;44744;51.894;5.080;2023-02-19T00:55:41;101920.22;;;8.96;92.25
58967;BME280;44744;51.894;5.080;2023-02-19T00:56:53;101918.47;;;8.96;92.34
58967;BME280;44744;51.894;5.080;2023-02-19T00:58:04;101918.45;;;8.97;92.26
58967;BME280;44744;51.894;5.080;2023-02-19T00:59:09;101924.66;;;8.95;92.25
58967;BME280;44744;51.894;5.080;2023-02-19T01:00:13;101928.77;;;8.94;92.27
58967;BME280;44744;51.894;5.080;2023-02-19T01:01:17;101930.14;;;8.95;92.28
58967;BME280;44744;51.894;5.080;2023-02-19T01:02:18;101931.02;;;8.95;92.15
58967;BME280;44744;51.894;5.080;2023-02-19T01:03:19;101935.42;;;8.95;92.17
58967;BME280;44744;51.894;5.080;2023-02-19T01:04:28;101936.85;;;8.95;92.20
58967;BME280;44744;51.894;5.080;2023-02-19T01:05:32;101934.95;;;8.94;92.15
58967;BME280;44744;51.894;5.080;2023-02-19T01:06:36;101935.13;;;8.94;92.20
58967;BME280;44744;51.894;5.080;2023-02-19T01:07:40;101935.81;;;8.94;92.09
58967;BME280;44744;51.894;5.080;2023-02-19T01:08:51;101939.48;;;8.95;92.08
58967;BME280;44744;51.894;5.080;2023-02-19T01:10:12;101940.36;;;8.96;92.18
58967;BME280;44744;51.894;5.080;2023-02-19T01:11:20;101939.11;;;8.96;92.10
58967;BME280;44744;51.894;5.080;2023-02-19T01:12:21;101940.01;;;8.96;92.12
58967;BME280;44744;51.894;5.080;2023-02-19T01:13:44;101939.83;;;8.95;92.11
58967;BME280;44744;51.894;5.080;2023-02-19T01:14:50;101941.44;;;8.95;92.14
58967;BME280;44744;51.894;5.080;2023-02-19T01:16:17;101941.09;;;8.95;92.09
58967;BME280;44744;51.894;5.080;2023-02-19T01:17:28;101936.16;;;8.94;92.06
58967;BME280;44744;51.894;5.080;2023-02-19T01:18:29;101938.78;;;8.95;92.09
58967;BME280;44744;51.894;5.080;2023-02-19T01:19:51;101941.67;;;8.93;92.03
58967;BME280;44744;51.894;5.080;2023-02-19T01:20:54;101941.86;;;8.93;91.98
58967;BME280;44744;51.894;5.080;2023-02-19T01:21:58;101936.58;;;8.92;92.02
58967;BME280;44744;51.894;5.080;2023-02-19T01:22:59;101942.04;;;8.93;91.86
58967;BME280;44744;51.894;5.080;2023-02-19T01:24:00;101942.02;;;8.93;92.04
58967;BME280;44744;51.894;5.080;2023-02-19T01:25:03;101944.46;;;8.94;91.91
58967;BME280;44744;51.894;5.080;2023-02-19T01:26:21;101944.98;;;8.94;91.92
58967;BME280;44744;51.894;5.080;2023-02-19T01:27:48;101947.30;;;8.94;91.93
58967;BME280;44744;51.894;5.080;2023-02-19T01:28:48;101945.18;;;8.94;91.86
58967;BME280;44744;51.894;5.080;2023-02-19T01:30:01;101947.99;;;8.94;91.82
58967;BME280;44744;51.894;5.080;2023-02-19T01:31:09;101944.52;;;8.93;91.78
58967;BME280;44744;51.894;5.080;2023-02-19T01:32:13;101946.05;;;8.94;91.86
58967;BME280;44744;51.894;5.080;2023-02-19T01:33:24;101951.34;;;8.94;91.78
58967;BME280;44744;51.894;5.080;2023-02-19T01:34:25;101951.48;;;8.95;91.90
58967;BME280;44744;51.894;5.080;2023-02-19T01:35:26;101949.85;;;8.97;91.80
58967;BME280;44744;51.894;5.080;2023-02-19T01:37:59;101952.98;;;8.99;91.68
58967;BME280;44744;51.894;5.080;2023-02-19T01:39:04;101951.21;;;8.98;91.61
58967;BME280;44744;51.894;5.080;2023-02-19T01:41:25;101952.11;;;8.98;91.45
58967;BME280;44744;51.894;5.080;2023-02-19T01:42:36;101950.70;;;8.98;91.59
58967;BME280;44744;51.894;5.080;2023-02-19T01:45:37;101953.82;;;9.00;91.39
58967;BME280;44744;51.894;5.080;2023-02-19T01:47:50;101956.15;;;8.98;91.36
58967;BME280;44744;51.894;5.080;2023-02-19T01:48:52;101957.74;;;8.98;91.25
58967;BME280;44744;51.894;5.080;2023-02-19T01:49:56;101958.08;;;8.99;91.28
58967;BME280;44744;51.894;5.080;2023-02-19T01:51:17;101959.29;;;8.99;91.21
58967;BME280;44744;51.894;5.080;2023-02-19T01:52:37;101958.40;;;9.00;91.06
58967;BME280;44744;51.894;5.080;2023-02-19T01:53:42;101955.09;;;8.98;91.07
58967;BME280;44744;51.894;5.080;2023-02-19T01:54:44;101953.67;;;8.99;91.16
58967;BME280;44744;51.894;5.080;2023-02-19T01:55:51;101958.60;;;8.99;91.09
58967;BME280;44744;51.894;5.080;2023-02-19T01:56:53;101955.77;;;8.99;91.03
58967;BME280;44744;51.894;5.080;2023-02-19T01:57:54;101951.59;;;8.98;91.09
58967;BME280;44744;51.894;5.080;2023-02-19T01:58:56;101951.60;;;8.97;91.09
58967;BME280;44744;51.894;5.080;2023-02-19T02:00:07;101952.79;;;8.99;91.13
58967;BME280;44744;51.894;5.080;2023-02-19T02:01:08;101949.11;;;8.98;91.14
58967;BME280;44744;51.894;5.080;2023-02-19T02:02:08;101952.08;;;8.99;91.15
58967;BME280;44744;51.894;5.080;2023-02-19T02:03:09;101950.84;;;8.99;91.11
58967;BME280;44744;51.894;5.080;2023-02-19T02:04:12;101951.20;;;8.99;91.17
58967;BME280;44744;51.894;5.080;2023-02-19T02:05:37;101949.96;;;8.99;91.13
58967;BME280;44744;51.894;5.080;2023-02-19T02:06:48;101947.88;;;8.98;91.17
58967;BME280;44744;51.894;5.080;2023-02-19T02:07:50;101950.31;;;8.99;91.15
58967;BME280;44744;51.894;5.080;2023-02-19T02:08:52;101947.15;;;8.99;91.11
58967;BME280;44744;51.894;5.080;2023-02-19T02:10:18;101947.46;;;9.00;91.12
58967;BME280;44744;51.894;5.080;2023-02-19T02:11:19;101945.21;;;8.99;91.07
58967;BME280;44744;51.894;5.080;2023-02-19T02:12:30;101944.19;;;8.98;91.12
58967;BME280;44744;51.894;5.080;2023-02-19T02:13:32;101946.11;;;8.98;91.07
58967;BME280;44744;51.894;5.080;2023-02-19T02:14:53;101947.14;;;8.99;91.07
58967;BME280;44744;51.894;5.080;2023-02-19T02:28:04;101954.11;;;8.96;90.84
58967;BME280;44744;51.894;5.080;2023-02-19T02:29:25;101956.85;;;8.93;90.89
58967;BME280;44744;51.894;5.080;2023-02-19T02:30:56;101954.17;;;8.94;90.80
58967;BME280;44744;51.894;5.080;2023-02-19T02:33:43;101952.23;;;8.93;91.06
58967;BME280;44744;51.894;5.080;2023-02-19T02:34:58;101958.42;;;8.93;90.97
58967;BME280;44744;51.894;5.080;2023-02-19T02:36:06;101957.23;;;8.92;90.93
58967;BME280;44744;51.894;5.080;2023-02-19T02:37:16;101957.23;;;8.92;90.93
58967;BME280;44744;51.894;5.080;2023-02-19T02:38:22;101957.91;;;8.93;91.00
58967;BME280;44744;51.894;5.080;2023-02-19T02:39:30;101962.42;;;8.95;91.01
58967;BME280;44744;51.894;5.080;2023-02-19T02:41:20;101962.60;;;8.95;90.93
58967;BME280;44744;51.894;5.080;2023-02-19T02:42:22;101964.40;;;8.94;90.94
58967;BME280;44744;51.894;5.080;2023-02-19T02:43:22;101966.33;;;8.95;90.99
58967;BME280;44744;51.894;5.080;2023-02-19T02:44:33;101965.23;;;8.96;90.82
58967;BME280;44744;51.894;5.080;2023-02-19T02:45:34;101967.33;;;8.97;90.75
58967;BME280;44744;51.894;5.080;2023-02-19T02:46:35;101966.45;;;8.96;90.94
58967;BME280;44744;51.894;5.080;2023-02-19T02:47:52;101968.02;;;8.97;90.93
58967;BME280;44744;51.894;5.080;2023-02-19T02:48:56;101968.20;;;8.97;90.86
58967;BME280;44744;51.894;5.080;2023-02-19T02:50:01;101970.83;;;8.98;90.87
58967;BME280;44744;51.894;5.080;2023-02-19T02:51:15;101972.39;;;8.98;90.85
58967;BME280;44744;51.894;5.080;2023-02-19T02:52:38;101973.27;;;8.98;90.78
58967;BME280;44744;51.894;5.080;2023-02-19T02:55:00;101973.29;;;8.98;90.89
58967;BME280;44744;51.894;5.080;2023-02-19T02:56:40;101971.17;;;8.98;90.88
58967;BME280;44744;51.894;5.080;2023-02-19T02:57:50;101974.34;;;8.97;90.82
58967;BME280;44744;51.894;5.080;2023-02-19T02:58:57;101972.23;;;8.97;90.85
58967;BME280;44744;51.894;5.080;2023-02-19T03:00:25;101977.86;;;8.98;90.77
58967;BME280;44744;51.894;5.080;2023-02-19T03:02:55;101980.69;;;8.98;90.78
58967;BME280;44744;51.894;5.080;2023-02-19T03:05:17;101984.20;;;8.98;90.76
58967;BME280;44744;51.894;5.080;2023-02-19T03:06:21;101988.10;;;8.98;90.78
58967;BME280;44744;51.894;5.080;2023-02-19T03:07:49;101990.55;;;8.99;90.81
